sensor_id;sensor_type;location;lat;lon;timestamp;P1;durP1;ratioP1;P2;durP2;ratioP2
43626;SDS011;29217;52.586;13.442;2022-08-21T00:01:11;13.68;;;8.50;;
43626;SDS011;29217;52.586;13.442;2022-08-21T00:03:40;10.98;;;8.05;;
43626;SDS011;29217;52.586;13.442;2022-08-21T00:06:06;13.60;;;7.90;;
43626;SDS011;29217;52.586;13.442;2022-08-21T00:08:31;12.38;;;8.13;;
43626;SDS011;29217;52.586;13.442;2022-08-21T00:10:57;14.45;;;8.63;;
43626;SDS011;29217;52.586;13.442;2022-08-21T00:13:23;15.48;;;9.05;;
43626;SDS011;29217;52.586;13.442;2022-08-21T00:15:48;11.05;;;8.32;;
43626;SDS011;29217;52.586;13.442;2022-08-21T00:18:15;13.48;;;7.85;;
43626;SDS011;29217;52.586;13.442;2022-08-21T00:20:42;11.95;;;8.25;;
43626;SDS011;29217;52.586;13.442;2022-08-21T00:23:09;17.05;;;9.88;;
43626;SDS011;29217;52.586;13.442;2022-08-21T00:25:36;21.58;;;12.77;;
43626;SDS011;29217;52.586;13.442;2022-08-21T00:28:02;18.08;;;12.98;;
43626;SDS011;29217;52.586;13.442;2022-08-21T00:30:28;19.65;;;12.60;;
43626;SDS011;29217;52.586;13.442;2022-08-21T00:32:55;18.65;;;13.00;;
43626;SDS011;29217;52.586;13.442;2022-08-21T00:35:23;19.45;;;12.68;;
43626;SDS011;29217;52.586;13.442;2022-08-21T00:37:52;21.98;;;11.65;;
43626;SDS011;29217;52.586;13.442;2022-08-21T00:40:21;15.90;;;10.57;;
43626;SDS011;29217;52.586;13.442;2022-08-21T00:42:50;14.50;;;10.38;;
43626;SDS011;29217;52.586;13.442;2022-08-21T00:45:16;19.73;;;10.05;;
43626;SDS011;29217;52.586;13.442;2022-08-21T00:47:42;14.98;;;9.38;;
43626;SDS011;29217;52.586;13.442;2022-08-21T00:50:09;15.57;;;9.40;;
43626;SDS011;29217;52.586;13.442;2022-08-21T00:52:37;17.95;;;9.27;;
43626;SDS011;29217;52.586;13.442;2022-08-21T00:55:05;15.23;;;9.38;;
43626;SDS011;29217;52.586;13.442;2022-08-21T00:57:34;15.90;;;8.10;;
43626;SDS011;29217;52.586;13.442;2022-08-21T01:00:05;12.10;;;8.40;;
43626;SDS011;29217;52.586;13.442;2022-08-21T01:02:34;13.50;;;8.63;;
43626;SDS011;29217;52.586;13.442;2022-08-21T01:04:59;15.43;;;8.93;;
43626;SDS011;29217;52.586;13.442;2022-08-21T01:07:25;11.07;;;8.30;;
43626;SDS011;29217;52.586;13.442;2022-08-21T01:09:51;10.88;;;8.00;;
43626;SDS011;29217;52.586;13.442;2022-08-21T01:12:16;17.05;;;9.10;;
43626;SDS011;29217;52.586;13.442;2022-08-21T01:14:42;15.43;;;8.70;;
43626;SDS011;29217;52.586;13.442;2022-08-21T01:17:09;13.57;;;8.25;;
43626;SDS011;29217;52.586;13.442;2022-08-21T01:19:37;17.70;;;8.95;;
43626;SDS011;29217;52.586;13.442;2022-08-21T01:22:03;12.95;;;8.02;;
43626;SDS011;29217;52.586;13.442;2022-08-21T01:24:29;10.93;;;8.02;;
43626;SDS011;29217;52.586;13.442;2022-08-21T01:26:56;15.18;;;8.98;;
43626;SDS011;29217;52.586;13.442;2022-08-21T01:32:11;16.05;;;7.10;;
43626;SDS011;29217;52.586;13.442;2022-08-21T01:34:41;12.27;;;6.65;;
43626;SDS011;29217;52.586;13.442;2022-08-21T01:37:08;15.18;;;7.80;;
43626;SDS011;29217;52.586;13.442;2022-08-21T01:39:34;11.63;;;7.10;;
43626;SDS011;29217;52.586;13.442;2022-08-21T01:42:01;13.52;;;7.43;;
43626;SDS011;29217;52.586;13.442;2022-08-21T01:44:27;10.90;;;7.32;;
43626;SDS011;29217;52.586;13.442;2022-08-21T01:46:53;14.05;;;7.70;;
43626;SDS011;29217;52.586;13.442;2022-08-21T01:49:20;12.40;;;8.40;;
43626;SDS011;29217;52.586;13.442;2022-08-21T01:51:46;10.38;;;7.50;;
43626;SDS011;29217;52.586;13.442;2022-08-21T01:54:11;11.60;;;7.28;;
43626;SDS011;29217;52.586;13.442;2022-08-21T01:56:45;14.30;;;7.28;;
43626;SDS011;29217;52.586;13.442;2022-08-21T01:59:13;11.00;;;7.72;;
43626;SDS011;29217;52.586;13.442;2022-08-21T02:01:39;11.73;;;7.90;;
43626;SDS011;29217;52.586;13.442;2022-08-21T02:04:05;14.93;;;7.80;;
43626;SDS011;29217;52.586;13.442;2022-08-21T02:06:32;11.77;;;7.68;;
43626;SDS011;29217;52.586;13.442;2022-08-21T02:08:58;10.80;;;7.55;;
43626;SDS011;29217;52.586;13.442;2022-08-21T02:11:23;12.82;;;8.10;;
43626;SDS011;29217;52.586;13.442;2022-08-21T02:13:49;12.57;;;7.50;;
43626;SDS011;29217;52.586;13.442;2022-08-21T02:16:15;10.68;;;7.13;;
43626;SDS011;29217;52.586;13.442;2022-08-21T02:18:40;11.73;;;7.22;;
43626;SDS011;29217;52.586;13.442;2022-08-21T02:21:06;15.55;;;7.50;;
43626;SDS011;29217;52.586;13.442;2022-08-21T02:23:32;8.38;;;6.70;;
43626;SDS011;29217;52.586;13.442;2022-08-21T02:25:58;11.55;;;6.82;;
43626;SDS011;29217;52.586;13.442;2022-08-21T02:28:25;16.15;;;7.65;;
43626;SDS011;29217;52.586;13.442;2022-08-21T02:30:52;10.25;;;7.10;;
43626;SDS011;29217;52.586;13.442;2022-08-21T02:33:18;12.77;;;7.85;;
43626;SDS011;29217;52.586;13.442;2022-08-21T02:35:45;10.25;;;6.65;;
43626;SDS011;29217;52.586;13.442;2022-08-21T02:38:12;11.65;;;7.20;;
43626;SDS011;29217;52.586;13.442;2022-08-21T02:40:45;11.35;;;7.03;;
43626;SDS011;29217;52.586;13.442;2022-08-21T02:43:12;11.32;;;6.30;;
43626;SDS011;29217;52.586;13.442;2022-08-21T02:45:40;11.95;;;6.47;;
43626;SDS011;29217;52.586;13.442;2022-08-21T02:48:10;12.60;;;6.90;;
43626;SDS011;29217;52.586;13.442;2022-08-21T02:50:39;10.38;;;6.78;;
43626;SDS011;29217;52.586;13.442;2022-08-21T02:53:10;13.65;;;6.75;;
43626;SDS011;29217;52.586;13.442;2022-08-21T02:55:41;12.25;;;6.35;;
43626;SDS011;29217;52.586;13.442;2022-08-21T02:58:12;10.38;;;6.10;;
43626;SDS011;29217;52.586;13.442;2022-08-21T03:00:39;9.18;;;6.07;;
43626;SDS011;29217;52.586;13.442;2022-08-21T03:03:06;8.27;;;5.88;;
43626;SDS011;29217;52.586;13.442;2022-08-21T03:05:32;9.50;;;5.82;;
43626;SDS011;29217;52.586;13.442;2022-08-21T03:08:00;9.50;;;5.65;;
43626;SDS011;29217;52.586;13.442;2022-08-21T03:10:27;9.60;;;5.38;;
43626;SDS011;29217;52.586;13.442;2022-08-21T03:12:53;11.00;;;5.40;;
43626;SDS011;29217;52.586;13.442;2022-08-21T03:15:20;12.73;;;6.30;;
43626;SDS011;29217;52.586;13.442;2022-08-21T03:17:48;9.55;;;6.03;;
43626;SDS011;29217;52.586;13.442;2022-08-21T03:20:16;6.85;;;5.22;;
43626;SDS011;29217;52.586;13.442;2022-08-21T03:22:43;14.50;;;5.78;;
43626;SDS011;29217;52.586;13.442;2022-08-21T03:25:09;11.85;;;5.35;;
43626;SDS011;29217;52.586;13.442;2022-08-21T03:27:35;11.10;;;5.60;;
43626;SDS011;29217;52.586;13.442;2022-08-21T03:30:02;6.80;;;5.10;;
43626;SDS011;29217;52.586;13.442;2022-08-21T03:32:29;9.15;;;5.05;;
43626;SDS011;29217;52.586;13.442;2022-08-21T03:34:56;8.88;;;5.15;;
43626;SDS011;29217;52.586;13.442;2022-08-21T03:37:24;7.28;;;5.43;;
43626;SDS011;29217;52.586;13.442;2022-08-21T03:39:49;9.15;;;5.28;;
43626;SDS011;29217;52.586;13.442;2022-08-21T03:42:15;10.90;;;5.72;;
43626;SDS011;29217;52.586;13.442;2022-08-21T03:44:41;8.55;;;5.20;;
43626;SDS011;29217;52.586;13.442;2022-08-21T03:47:07;14.63;;;5.22;;
43626;SDS011;29217;52.586;13.442;2022-08-21T03:49:33;8.77;;;5.40;;
43626;SDS011;29217;52.586;13.442;2022-08-21T03:51:59;11.95;;;5.50;;
43626;SDS011;29217;52.586;13.442;2022-08-21T03:54:25;9.68;;;5.40;;
43626;SDS011;29217;52.586;13.442;2022-08-21T03:56:51;7.75;;;5.00;;
43626;SDS011;29217;52.586;13.442;2022-08-21T03:59:16;13.43;;;5.00;;
43626;SDS011;29217;52.586;13.442;2022-08-21T04:01:56;8.65;;;4.90;;
43626;SDS011;29217;52.586;13.442;2022-08-21T04:04:24;10.63;;;5.38;;
43626;SDS011;29217;52.586;13.442;2022-08-21T04:06:51;13.15;;;5.38;;
43626;SDS011;29217;52.586;13.442;2022-08-21T04:09:17;7.53;;;4.45;;
43626;SDS011;29217;52.586;13.442;2022-08-21T04:11:43;7.32;;;4.90;;
43626;SDS011;29217;52.586;13.442;2022-08-21T04:14:10;14.93;;;5.13;;
43626;SDS011;29217;52.586;13.442;2022-08-21T04:16:36;11.40;;;5.22;;
43626;SDS011;29217;52.586;13.442;2022-08-21T04:19:01;10.65;;;5.25;;
43626;SDS011;29217;52.586;13.442;2022-08-21T04:21:27;12.90;;;5.28;;
43626;SDS011;29217;52.586;13.442;2022-08-21T04:23:56;7.90;;;4.78;;
43626;SDS011;29217;52.586;13.442;2022-08-21T04:26:21;14.02;;;5.00;;
43626;SDS011;29217;52.586;13.442;2022-08-21T04:28:47;8.55;;;4.85;;
43626;SDS011;29217;52.586;13.442;2022-08-21T04:31:13;7.78;;;5.03;;
43626;SDS011;29217;52.586;13.442;2022-08-21T04:33:39;5.90;;;4.38;;
43626;SDS011;29217;52.586;13.442;2022-08-21T04:36:05;16.13;;;4.90;;
43626;SDS011;29217;52.586;13.442;2022-08-21T04:38:31;12.48;;;4.20;;
43626;SDS011;29217;52.586;13.442;2022-08-21T04:40:57;8.05;;;4.32;;
43626;SDS011;29217;52.586;13.442;2022-08-21T04:43:23;8.07;;;4.72;;
43626;SDS011;29217;52.586;13.442;2022-08-21T04:45:49;8.98;;;6.20;;
43626;SDS011;29217;52.586;13.442;2022-08-21T04:48:16;7.22;;;4.60;;
43626;SDS011;29217;52.586;13.442;2022-08-21T04:50:49;9.93;;;4.90;;
43626;SDS011;29217;52.586;13.442;2022-08-21T04:55:53;8.73;;;4.80;;
43626;SDS011;29217;52.586;13.442;2022-08-21T04:58:21;8.40;;;4.15;;
43626;SDS011;29217;52.586;13.442;2022-08-21T05:00:50;9.23;;;4.38;;
43626;SDS011;29217;52.586;13.442;2022-08-21T05:03:18;8.32;;;4.22;;
43626;SDS011;29217;52.586;13.442;2022-08-21T05:05:44;9.77;;;4.13;;
43626;SDS011;29217;52.586;13.442;2022-08-21T05:08:11;13.85;;;4.18;;
43626;SDS011;29217;52.586;13.442;2022-08-21T05:10:39;11.05;;;4.53;;
43626;SDS011;29217;52.586;13.442;2022-08-21T05:13:05;11.88;;;4.80;;
43626;SDS011;29217;52.586;13.442;2022-08-21T05:15:31;10.65;;;3.78;;
43626;SDS011;29217;52.586;13.442;2022-08-21T05:17:57;6.88;;;3.85;;
43626;SDS011;29217;52.586;13.442;2022-08-21T05:20:23;11.98;;;3.72;;
43626;SDS011;29217;52.586;13.442;2022-08-21T05:22:49;9.13;;;4.50;;
43626;SDS011;29217;52.586;13.442;2022-08-21T05:25:14;13.23;;;4.68;;
43626;SDS011;29217;52.586;13.442;2022-08-21T05:27:41;6.28;;;3.65;;
43626;SDS011;29217;52.586;13.442;2022-08-21T05:30:07;16.17;;;5.20;;
43626;SDS011;29217;52.586;13.442;2022-08-21T05:32:35;10.02;;;3.67;;
43626;SDS011;29217;52.586;13.442;2022-08-21T05:35:01;6.28;;;3.55;;
43626;SDS011;29217;52.586;13.442;2022-08-21T05:37:28;9.23;;;3.95;;
43626;SDS011;29217;52.586;13.442;2022-08-21T05:39:54;10.43;;;3.88;;
43626;SDS011;29217;52.586;13.442;2022-08-21T05:42:19;6.07;;;3.10;;
43626;SDS011;29217;52.586;13.442;2022-08-21T05:44:45;9.50;;;3.30;;
43626;SDS011;29217;52.586;13.442;2022-08-21T05:47:10;6.28;;;3.20;;
43626;SDS011;29217;52.586;13.442;2022-08-21T05:49:36;6.55;;;3.15;;
43626;SDS011;29217;52.586;13.442;2022-08-21T05:52:02;9.25;;;4.10;;
43626;SDS011;29217;52.586;13.442;2022-08-21T05:54:29;6.65;;;3.58;;
43626;SDS011;29217;52.586;13.442;2022-08-21T05:56:56;10.60;;;3.70;;
43626;SDS011;29217;52.586;13.442;2022-08-21T05:59:21;5.30;;;3.13;;
43626;SDS011;29217;52.586;13.442;2022-08-21T06:01:47;10.93;;;4.38;;
43626;SDS011;29217;52.586;13.442;2022-08-21T06:04:13;14.52;;;4.68;;
43626;SDS011;29217;52.586;13.442;2022-08-21T06:06:39;6.75;;;3.30;;
43626;SDS011;29217;52.586;13.442;2022-08-21T06:09:04;6.78;;;2.88;;
43626;SDS011;29217;52.586;13.442;2022-08-21T06:11:31;8.82;;;3.65;;
43626;SDS011;29217;52.586;13.442;2022-08-21T06:13:57;7.40;;;2.90;;
43626;SDS011;29217;52.586;13.442;2022-08-21T06:16:23;4.93;;;2.90;;
43626;SDS011;29217;52.586;13.442;2022-08-21T06:18:49;8.10;;;3.30;;
43626;SDS011;29217;52.586;13.442;2022-08-21T06:21:15;8.48;;;3.05;;
43626;SDS011;29217;52.586;13.442;2022-08-21T06:23:41;6.93;;;2.80;;
43626;SDS011;29217;52.586;13.442;2022-08-21T06:26:07;10.30;;;3.45;;
43626;SDS011;29217;52.586;13.442;2022-08-21T06:28:34;6.35;;;2.90;;
43626;SDS011;29217;52.586;13.442;2022-08-21T06:31:09;13.07;;;3.42;;
43626;SDS011;29217;52.586;13.442;2022-08-21T06:33:39;8.27;;;2.80;;
43626;SDS011;29217;52.586;13.442;2022-08-21T06:36:05;10.07;;;2.58;;
43626;SDS011;29217;52.586;13.442;2022-08-21T06:38:31;8.32;;;3.08;;
43626;SDS011;29217;52.586;13.442;2022-08-21T06:40:57;9.32;;;3.15;;
43626;SDS011;29217;52.586;13.442;2022-08-21T06:43:22;15.60;;;4.57;;
43626;SDS011;29217;52.586;13.442;2022-08-21T06:45:48;6.55;;;2.70;;
43626;SDS011;29217;52.586;13.442;2022-08-21T06:48:14;8.65;;;2.72;;
43626;SDS011;29217;52.586;13.442;2022-08-21T06:50:40;12.38;;;3.42;;
43626;SDS011;29217;52.586;13.442;2022-08-21T06:53:07;5.82;;;2.70;;
43626;SDS011;29217;52.586;13.442;2022-08-21T06:55:35;5.45;;;2.40;;
43626;SDS011;29217;52.586;13.442;2022-08-21T06:58:02;11.07;;;3.08;;
43626;SDS011;29217;52.586;13.442;2022-08-21T07:00:28;6.95;;;2.65;;
43626;SDS011;29217;52.586;13.442;2022-08-21T07:02:53;9.13;;;2.63;;
43626;SDS011;29217;52.586;13.442;2022-08-21T07:05:19;9.00;;;2.65;;
43626;SDS011;29217;52.586;13.442;2022-08-21T07:07:46;7.22;;;2.92;;
43626;SDS011;29217;52.586;13.442;2022-08-21T07:10:13;6.25;;;2.47;;
43626;SDS011;29217;52.586;13.442;2022-08-21T07:12:39;7.00;;;2.28;;
43626;SDS011;29217;52.586;13.442;2022-08-21T07:15:06;5.50;;;2.50;;
43626;SDS011;29217;52.586;13.442;2022-08-21T07:17:32;12.52;;;2.78;;
43626;SDS011;29217;52.586;13.442;2022-08-21T07:19:57;12.00;;;2.33;;
43626;SDS011;29217;52.586;13.442;2022-08-21T07:22:23;4.47;;;2.33;;
43626;SDS011;29217;52.586;13.442;2022-08-21T07:24:49;8.65;;;2.45;;
43626;SDS011;29217;52.586;13.442;2022-08-21T07:27:15;8.85;;;2.60;;
43626;SDS011;29217;52.586;13.442;2022-08-21T07:29:40;7.05;;;2.17;;
43626;SDS011;29217;52.586;13.442;2022-08-21T07:32:06;8.57;;;2.13;;
43626;SDS011;29217;52.586;13.442;2022-08-21T07:34:32;5.53;;;2.20;;
43626;SDS011;29217;52.586;13.442;2022-08-21T07:36:57;7.82;;;2.42;;
43626;SDS011;29217;52.586;13.442;2022-08-21T07:39:23;9.27;;;3.55;;
43626;SDS011;29217;52.586;13.442;2022-08-21T07:41:49;8.27;;;2.10;;
43626;SDS011;29217;52.586;13.442;2022-08-21T07:44:14;9.20;;;2.13;;
43626;SDS011;29217;52.586;13.442;2022-08-21T07:46:40;8.25;;;2.67;;
43626;SDS011;29217;52.586;13.442;2022-08-21T07:49:06;4.47;;;1.90;;
43626;SDS011;29217;52.586;13.442;2022-08-21T07:51:31;4.88;;;1.63;;
43626;SDS011;29217;52.586;13.442;2022-08-21T07:53:58;5.70;;;1.70;;
43626;SDS011;29217;52.586;13.442;2022-08-21T07:56:25;10.43;;;2.10;;
43626;SDS011;29217;52.586;13.442;2022-08-21T07:58:51;7.22;;;2.00;;
43626;SDS011;29217;52.586;13.442;2022-08-21T08:01:17;11.13;;;2.10;;
43626;SDS011;29217;52.586;13.442;2022-08-21T08:03:43;4.68;;;1.77;;
43626;SDS011;29217;52.586;13.442;2022-08-21T08:06:10;7.25;;;1.60;;
43626;SDS011;29217;52.586;13.442;2022-08-21T08:08:37;4.47;;;1.60;;
43626;SDS011;29217;52.586;13.442;2022-08-21T08:11:04;8.27;;;2.80;;
43626;SDS011;29217;52.586;13.442;2022-08-21T08:13:30;8.18;;;2.05;;
43626;SDS011;29217;52.586;13.442;2022-08-21T08:15:55;6.55;;;1.70;;
43626;SDS011;29217;52.586;13.442;2022-08-21T08:18:21;6.00;;;1.60;;
43626;SDS011;29217;52.586;13.442;2022-08-21T08:20:47;3.95;;;1.83;;
43626;SDS011;29217;52.586;13.442;2022-08-21T08:23:13;5.20;;;1.67;;
43626;SDS011;29217;52.586;13.442;2022-08-21T08:25:39;5.78;;;1.75;;
43626;SDS011;29217;52.586;13.442;2022-08-21T08:28:05;6.20;;;1.60;;
43626;SDS011;29217;52.586;13.442;2022-08-21T08:30:32;3.50;;;1.27;;
43626;SDS011;29217;52.586;13.442;2022-08-21T08:32:58;6.70;;;2.22;;
43626;SDS011;29217;52.586;13.442;2022-08-21T08:35:24;4.18;;;1.50;;
43626;SDS011;29217;52.586;13.442;2022-08-21T08:37:51;8.35;;;1.73;;
43626;SDS011;29217;52.586;13.442;2022-08-21T08:42:54;5.88;;;1.45;;
43626;SDS011;29217;52.586;13.442;2022-08-21T08:45:20;4.20;;;1.65;;
43626;SDS011;29217;52.586;13.442;2022-08-21T08:47:52;3.25;;;1.60;;
43626;SDS011;29217;52.586;13.442;2022-08-21T08:53:18;3.60;;;1.27;;
43626;SDS011;29217;52.586;13.442;2022-08-21T08:55:49;7.97;;;2.28;;
43626;SDS011;29217;52.586;13.442;2022-08-21T08:58:50;3.28;;;1.50;;
43626;SDS011;29217;52.586;13.442;2022-08-21T09:01:19;5.22;;;1.67;;
43626;SDS011;29217;52.586;13.442;2022-08-21T09:03:45;3.53;;;1.40;;
43626;SDS011;29217;52.586;13.442;2022-08-21T09:06:34;6.55;;;1.80;;
43626;SDS011;29217;52.586;13.442;2022-08-21T09:09:27;5.43;;;1.38;;
43626;SDS011;29217;52.586;13.442;2022-08-21T09:12:14;4.43;;;1.42;;
43626;SDS011;29217;52.586;13.442;2022-08-21T09:17:45;2.45;;;1.60;;
43626;SDS011;29217;52.586;13.442;2022-08-21T09:20:37;12.18;;;1.58;;
43626;SDS011;29217;52.586;13.442;2022-08-21T09:26:14;3.97;;;1.50;;
43626;SDS011;29217;52.586;13.442;2022-08-21T09:28:44;5.75;;;1.50;;
43626;SDS011;29217;52.586;13.442;2022-08-21T09:31:19;5.88;;;1.70;;
43626;SDS011;29217;52.586;13.442;2022-08-21T09:34:03;5.65;;;2.10;;
43626;SDS011;29217;52.586;13.442;2022-08-21T09:38:58;7.47;;;1.63;;
43626;SDS011;29217;52.586;13.442;2022-08-21T09:41:28;3.83;;;1.40;;
43626;SDS011;29217;52.586;13.442;2022-08-21T09:43:56;5.93;;;1.45;;
43626;SDS011;29217;52.586;13.442;2022-08-21T09:46:23;4.82;;;1.25;;
43626;SDS011;29217;52.586;13.442;2022-08-21T09:48:52;4.95;;;1.45;;
43626;SDS011;29217;52.586;13.442;2022-08-21T09:51:21;3.00;;;1.38;;
43626;SDS011;29217;52.586;13.442;2022-08-21T09:53:51;6.13;;;1.70;;
43626;SDS011;29217;52.586;13.442;2022-08-21T09:56:27;9.43;;;1.90;;
43626;SDS011;29217;52.586;13.442;2022-08-21T09:59:24;4.28;;;1.25;;
43626;SDS011;29217;52.586;13.442;2022-08-21T10:01:55;5.32;;;1.40;;
43626;SDS011;29217;52.586;13.442;2022-08-21T10:04:23;5.18;;;1.30;;
43626;SDS011;29217;52.586;13.442;2022-08-21T10:06:53;5.70;;;1.50;;
43626;SDS011;29217;52.586;13.442;2022-08-21T10:09:19;4.03;;;1.58;;
43626;SDS011;29217;52.586;13.442;2022-08-21T10:11:49;5.80;;;1.48;;
43626;SDS011;29217;52.586;13.442;2022-08-21T10:20:00;5.50;;;1.38;;
43626;SDS011;29217;52.586;13.442;2022-08-21T10:22:57;3.88;;;1.50;;
43626;SDS011;29217;52.586;13.442;2022-08-21T10:25:31;4.15;;;1.63;;
43626;SDS011;29217;52.586;13.442;2022-08-21T10:28:21;8.15;;;1.45;;
43626;SDS011;29217;52.586;13.442;2022-08-21T10:35:54;4.63;;;1.63;;
43626;SDS011;29217;52.586;13.442;2022-08-21T10:47:19;8.80;;;2.20;;
43626;SDS011;29217;52.586;13.442;2022-08-21T10:50:22;5.30;;;1.90;;
43626;SDS011;29217;52.586;13.442;2022-08-21T10:53:05;7.72;;;1.52;;
43626;SDS011;29217;52.586;13.442;2022-08-21T10:55:46;3.03;;;1.30;;
43626;SDS011;29217;52.586;13.442;2022-08-21T10:58:34;5.20;;;1.38;;
43626;SDS011;29217;52.586;13.442;2022-08-21T11:01:13;3.67;;;1.25;;
43626;SDS011;29217;52.586;13.442;2022-08-21T11:03:46;3.92;;;1.27;;
43626;SDS011;29217;52.586;13.442;2022-08-21T11:06:23;5.07;;;1.42;;
43626;SDS011;29217;52.586;13.442;2022-08-21T11:08:54;6.32;;;1.63;;
43626;SDS011;29217;52.586;13.442;2022-08-21T11:11:29;6.82;;;1.30;;
43626;SDS011;29217;52.586;13.442;2022-08-21T11:14:09;4.68;;;1.80;;
43626;SDS011;29217;52.586;13.442;2022-08-21T11:16:45;4.07;;;1.50;;
43626;SDS011;29217;52.586;13.442;2022-08-21T11:24:30;4.60;;;1.20;;
43626;SDS011;29217;52.586;13.442;2022-08-21T11:27:05;3.05;;;1.23;;
43626;SDS011;29217;52.586;13.442;2022-08-21T11:29:54;5.13;;;1.55;;
43626;SDS011;29217;52.586;13.442;2022-08-21T11:43:38;4.50;;;1.45;;
43626;SDS011;29217;52.586;13.442;2022-08-21T11:51:55;2.17;;;0.98;;
43626;SDS011;29217;52.586;13.442;2022-08-21T11:54:52;2.47;;;0.98;;
43626;SDS011;29217;52.586;13.442;2022-08-21T11:57:29;3.55;;;1.17;;
43626;SDS011;29217;52.586;13.442;2022-08-21T12:00:03;3.72;;;0.93;;
43626;SDS011;29217;52.586;13.442;2022-08-21T12:02:35;3.60;;;0.82;;
43626;SDS011;29217;52.586;13.442;2022-08-21T12:05:06;2.30;;;0.80;;
43626;SDS011;29217;52.586;13.442;2022-08-21T12:07:42;1.23;;;0.68;;
43626;SDS011;29217;52.586;13.442;2022-08-21T12:10:14;3.63;;;0.90;;
43626;SDS011;29217;52.586;13.442;2022-08-21T12:12:43;2.88;;;0.80;;
43626;SDS011;29217;52.586;13.442;2022-08-21T12:15:14;1.40;;;0.60;;
43626;SDS011;29217;52.586;13.442;2022-08-21T12:23:12;1.48;;;0.80;;
43626;SDS011;29217;52.586;13.442;2022-08-21T12:25:44;0.57;;;0.45;;
43626;SDS011;29217;52.586;13.442;2022-08-21T12:28:14;1.98;;;0.65;;
43626;SDS011;29217;52.586;13.442;2022-08-21T12:30:46;1.20;;;0.77;;
43626;SDS011;29217;52.586;13.442;2022-08-21T12:33:21;2.85;;;0.68;;
43626;SDS011;29217;52.586;13.442;2022-08-21T12:35:51;3.55;;;0.80;;
43626;SDS011;29217;52.586;13.442;2022-08-21T12:38:32;3.63;;;1.00;;
43626;SDS011;29217;52.586;13.442;2022-08-21T12:41:28;2.28;;;0.75;;
43626;SDS011;29217;52.586;13.442;2022-08-21T12:46:52;4.80;;;0.80;;
43626;SDS011;29217;52.586;13.442;2022-08-21T12:50:03;0.95;;;0.57;;
43626;SDS011;29217;52.586;13.442;2022-08-21T12:52:30;3.28;;;0.80;;
43626;SDS011;29217;52.586;13.442;2022-08-21T12:55:02;1.40;;;0.60;;
43626;SDS011;29217;52.586;13.442;2022-08-21T12:57:29;1.98;;;0.60;;
43626;SDS011;29217;52.586;13.442;2022-08-21T12:59:57;2.00;;;0.60;;
43626;SDS011;29217;52.586;13.442;2022-08-21T13:02:35;3.08;;;1.00;;
43626;SDS011;29217;52.586;13.442;2022-08-21T13:05:05;1.95;;;0.73;;
43626;SDS011;29217;52.586;13.442;2022-08-21T13:07:34;1.48;;;0.80;;
43626;SDS011;29217;52.586;13.442;2022-08-21T13:10:14;2.40;;;1.00;;
43626;SDS011;29217;52.586;13.442;2022-08-21T13:12:45;8.48;;;1.23;;
43626;SDS011;29217;52.586;13.442;2022-08-21T13:15:12;2.63;;;1.05;;
43626;SDS011;29217;52.586;13.442;2022-08-21T13:17:39;6.03;;;1.30;;
43626;SDS011;29217;52.586;13.442;2022-08-21T13:20:18;3.03;;;1.10;;
43626;SDS011;29217;52.586;13.442;2022-08-21T13:22:54;4.22;;;0.90;;
43626;SDS011;29217;52.586;13.442;2022-08-21T13:25:21;3.13;;;1.10;;
43626;SDS011;29217;52.586;13.442;2022-08-21T13:30:46;3.53;;;1.00;;
43626;SDS011;29217;52.586;13.442;2022-08-21T13:33:15;3.30;;;1.00;;
43626;SDS011;29217;52.586;13.442;2022-08-21T13:38:30;4.82;;;0.90;;
43626;SDS011;29217;52.586;13.442;2022-08-21T13:43:44;1.77;;;1.27;;
43626;SDS011;29217;52.586;13.442;2022-08-21T13:46:12;3.67;;;1.25;;
43626;SDS011;29217;52.586;13.442;2022-08-21T13:48:39;1.08;;;0.90;;
43626;SDS011;29217;52.586;13.442;2022-08-21T13:51:06;3.47;;;1.20;;
43626;SDS011;29217;52.586;13.442;2022-08-21T13:53:45;2.45;;;1.10;;
43626;SDS011;29217;52.586;13.442;2022-08-21T13:59:07;3.75;;;1.20;;
43626;SDS011;29217;52.586;13.442;2022-08-21T14:04:33;3.65;;;1.00;;
43626;SDS011;29217;52.586;13.442;2022-08-21T14:07:02;2.50;;;1.00;;
43626;SDS011;29217;52.586;13.442;2022-08-21T14:09:44;3.35;;;1.02;;
43626;SDS011;29217;52.586;13.442;2022-08-21T14:12:34;2.28;;;1.05;;
43626;SDS011;29217;52.586;13.442;2022-08-21T14:15:02;1.92;;;1.00;;
43626;SDS011;29217;52.586;13.442;2022-08-21T14:17:35;4.88;;;1.23;;
43626;SDS011;29217;52.586;13.442;2022-08-21T14:20:06;3.83;;;1.38;;
43626;SDS011;29217;52.586;13.442;2022-08-21T14:22:39;8.65;;;1.25;;
43626;SDS011;29217;52.586;13.442;2022-08-21T14:27:53;3.35;;;1.40;;
43626;SDS011;29217;52.586;13.442;2022-08-21T14:30:42;4.10;;;1.30;;
43626;SDS011;29217;52.586;13.442;2022-08-21T14:33:10;2.33;;;1.10;;
43626;SDS011;29217;52.586;13.442;2022-08-21T14:35:38;3.33;;;1.35;;
43626;SDS011;29217;52.586;13.442;2022-08-21T14:38:11;3.13;;;1.20;;
43626;SDS011;29217;52.586;13.442;2022-08-21T14:40:41;6.82;;;1.55;;
43626;SDS011;29217;52.586;13.442;2022-08-21T14:43:07;5.93;;;1.33;;
43626;SDS011;29217;52.586;13.442;2022-08-21T14:45:33;5.85;;;1.48;;
43626;SDS011;29217;52.586;13.442;2022-08-21T14:48:01;3.70;;;1.50;;
43626;SDS011;29217;52.586;13.442;2022-08-21T14:50:27;3.75;;;1.35;;
43626;SDS011;29217;52.586;13.442;2022-08-21T14:52:52;4.03;;;1.13;;
43626;SDS011;29217;52.586;13.442;2022-08-21T14:55:18;2.95;;;1.27;;
43626;SDS011;29217;52.586;13.442;2022-08-21T14:57:45;3.63;;;1.42;;
43626;SDS011;29217;52.586;13.442;2022-08-21T15:00:14;3.58;;;1.48;;
43626;SDS011;29217;52.586;13.442;2022-08-21T15:02:41;6.68;;;1.35;;
43626;SDS011;29217;52.586;13.442;2022-08-21T15:05:07;3.65;;;1.35;;
43626;SDS011;29217;52.586;13.442;2022-08-21T15:07:33;3.92;;;1.75;;
43626;SDS011;29217;52.586;13.442;2022-08-21T15:09:59;6.97;;;1.95;;
43626;SDS011;29217;52.586;13.442;2022-08-21T15:12:25;5.32;;;1.83;;
43626;SDS011;29217;52.586;13.442;2022-08-21T15:14:50;3.85;;;1.40;;
43626;SDS011;29217;52.586;13.442;2022-08-21T15:17:17;5.63;;;1.88;;
43626;SDS011;29217;52.586;13.442;2022-08-21T15:19:43;5.32;;;2.20;;
43626;SDS011;29217;52.586;13.442;2022-08-21T15:22:09;5.30;;;1.58;;
43626;SDS011;29217;52.586;13.442;2022-08-21T15:24:34;4.10;;;1.70;;
43626;SDS011;29217;52.586;13.442;2022-08-21T15:27:01;4.35;;;1.88;;
43626;SDS011;29217;52.586;13.442;2022-08-21T15:29:29;4.82;;;1.40;;
43626;SDS011;29217;52.586;13.442;2022-08-21T15:31:56;4.28;;;1.60;;
43626;SDS011;29217;52.586;13.442;2022-08-21T15:34:25;3.53;;;1.77;;
43626;SDS011;29217;52.586;13.442;2022-08-21T15:36:52;7.72;;;1.67;;
43626;SDS011;29217;52.586;13.442;2022-08-21T15:39:17;6.28;;;1.52;;
43626;SDS011;29217;52.586;13.442;2022-08-21T15:41:43;3.22;;;1.38;;
43626;SDS011;29217;52.586;13.442;2022-08-21T15:44:10;3.35;;;1.40;;
43626;SDS011;29217;52.586;13.442;2022-08-21T15:46:37;3.92;;;1.40;;
43626;SDS011;29217;52.586;13.442;2022-08-21T15:49:03;8.30;;;1.70;;
43626;SDS011;29217;52.586;13.442;2022-08-21T15:51:29;4.85;;;1.40;;
43626;SDS011;29217;52.586;13.442;2022-08-21T15:53:54;3.88;;;1.33;;
43626;SDS011;29217;52.586;13.442;2022-08-21T15:56:21;6.50;;;1.27;;
43626;SDS011;29217;52.586;13.442;2022-08-21T15:58:52;8.32;;;1.50;;
43626;SDS011;29217;52.586;13.442;2022-08-21T16:01:23;7.75;;;2.00;;
43626;SDS011;29217;52.586;13.442;2022-08-21T16:03:49;6.07;;;1.77;;
43626;SDS011;29217;52.586;13.442;2022-08-21T16:06:17;3.80;;;1.45;;
43626;SDS011;29217;52.586;13.442;2022-08-21T16:08:42;4.90;;;1.65;;